createdAt,value
2018-08-13T00:01:48.444Z,17.00
2018-08-13T00:02:48.384Z,17.03
2018-08-13T00:04:41.169Z,16.92
2018-08-13T00:05:41.096Z,16.88
2018-08-13T00:07:33.878Z,16.88
2018-08-13T00:08:33.802Z,16.95
2018-08-13T00:10:26.600Z,16.85
2018-08-13T00:11:26.548Z,16.85
2018-08-13T00:13:19.337Z,16.75
2018-08-13T00:14:19.271Z,16.70
2018-08-13T00:16:12.019Z,16.65
2018-08-13T00:17:11.962Z,16.69
2018-08-13T00:19:04.840Z,16.70
2018-08-13T00:20:04.670Z,16.60
2018-08-13T00:21:57.459Z,16.60
2018-08-13T00:22:57.400Z,16.63
2018-08-13T00:24:50.194Z,16.63
2018-08-13T00:25:50.116Z,16.54
2018-08-13T00:27:42.919Z,16.52
2018-08-13T00:28:42.819Z,16.52
2018-08-13T00:30:35.609Z,16.57
2018-08-13T00:31:35.543Z,16.54
2018-08-13T00:33:28.343Z,16.55
2018-08-13T00:34:28.258Z,16.48
2018-08-13T00:36:21.023Z,16.50
2018-08-13T00:37:20.996Z,16.40
2018-08-13T00:39:13.767Z,16.40
2018-08-13T00:40:13.677Z,16.34
2018-08-13T00:42:06.458Z,16.34
2018-08-13T00:43:06.392Z,16.36
2018-08-13T00:44:59.188Z,16.36
2018-08-13T00:45:59.159Z,16.29
2018-08-13T00:47:51.895Z,16.30
2018-08-13T00:48:51.842Z,16.29
2018-08-13T00:50:44.648Z,16.42
2018-08-13T00:51:44.550Z,16.37
2018-08-13T00:53:37.353Z,16.41
2018-08-13T00:54:37.282Z,16.45
2018-08-13T00:56:30.091Z,16.47
2018-08-13T00:57:30.041Z,16.47
2018-08-13T00:59:22.830Z,16.54
2018-08-13T01:00:22.749Z,16.66
2018-08-13T01:02:15.527Z,16.77
2018-08-13T01:03:15.466Z,16.77
2018-08-13T01:05:08.261Z,16.84
2018-08-13T01:06:08.185Z,16.80
2018-08-13T01:08:00.980Z,16.77
2018-08-13T01:09:00.885Z,16.78
2018-08-13T01:10:53.678Z,16.80
2018-08-13T01:11:53.617Z,16.80
2018-08-13T01:13:46.438Z,16.77
2018-08-13T01:14:46.361Z,16.77
2018-08-13T01:16:39.125Z,16.73
2018-08-13T01:17:39.063Z,16.66
2018-08-13T01:19:31.853Z,16.66
2018-08-13T01:20:31.786Z,16.54
2018-08-13T01:22:24.559Z,16.54
2018-08-13T01:23:24.490Z,16.59
2018-08-13T01:25:17.304Z,16.50
2018-08-13T01:26:17.218Z,16.42
2018-08-13T01:28:09.987Z,16.29
2018-08-13T01:29:09.919Z,16.30
2018-08-13T01:31:02.728Z,16.14
2018-08-13T01:32:02.662Z,16.17
2018-08-13T01:33:55.477Z,16.14
2018-08-13T01:34:55.395Z,16.10
2018-08-13T01:36:48.150Z,16.01
2018-08-13T01:37:48.094Z,16.07
2018-08-13T01:39:40.876Z,16.07
2018-08-13T01:40:40.797Z,15.98
2018-08-13T01:42:33.612Z,15.98
2018-08-13T01:43:33.544Z,15.89
2018-08-13T01:45:26.334Z,15.93
2018-08-13T01:46:26.260Z,15.88
2018-08-13T01:48:19.046Z,15.88
2018-08-13T01:49:18.967Z,15.81
2018-08-13T01:51:11.763Z,15.86
2018-08-13T01:52:11.683Z,15.81
2018-08-13T01:54:04.466Z,15.73
2018-08-13T01:55:04.401Z,15.71
2018-08-13T01:56:57.174Z,15.74
2018-08-13T01:57:57.117Z,15.67
2018-08-13T01:59:49.901Z,15.68
2018-08-13T02:00:49.815Z,15.68
2018-08-13T02:02:42.588Z,15.66
2018-08-13T02:03:42.524Z,15.58
2018-08-13T02:05:35.311Z,15.60
2018-08-13T02:06:35.241Z,15.70
2018-08-13T02:08:28.010Z,15.60
2018-08-13T02:09:27.932Z,15.58
2018-08-13T02:11:20.732Z,15.51
2018-08-13T02:12:20.654Z,15.51
2018-08-13T02:14:13.447Z,15.52
2018-08-13T02:15:13.363Z,15.44
2018-08-13T02:17:06.137Z,15.48
2018-08-13T02:18:06.082Z,15.38
2018-08-13T02:19:58.848Z,15.41
2018-08-13T02:20:58.773Z,15.31
2018-08-13T02:22:51.540Z,15.30
2018-08-13T02:23:51.472Z,15.20
2018-08-13T02:25:44.256Z,15.18
2018-08-13T02:26:44.182Z,15.16
2018-08-13T02:28:36.969Z,15.04
2018-08-13T02:29:36.909Z,15.07
2018-08-13T02:31:29.695Z,15.09
2018-08-13T02:32:29.618Z,15.11
2018-08-13T02:34:22.399Z,15.00
2018-08-13T02:35:22.334Z,14.98
2018-08-13T02:37:15.095Z,14.97
2018-08-13T02:38:15.042Z,14.94
2018-08-13T02:40:07.901Z,14.90
2018-08-13T02:41:07.810Z,14.86
2018-08-13T02:43:00.586Z,14.82
2018-08-13T02:44:00.511Z,14.90
2018-08-13T02:45:53.306Z,14.95
2018-08-13T02:46:53.226Z,14.94
2018-08-13T02:48:46.013Z,14.85
2018-08-13T02:49:45.952Z,14.95
2018-08-13T02:51:38.756Z,14.83
2018-08-13T02:52:38.673Z,14.86
2018-08-13T02:54:31.479Z,14.85
2018-08-13T02:55:31.401Z,14.85
2018-08-13T02:57:24.184Z,14.79
2018-08-13T02:58:24.117Z,14.78
2018-08-13T03:00:16.899Z,14.80
2018-08-13T03:01:16.822Z,14.79
2018-08-13T03:03:09.605Z,14.75
2018-08-13T03:04:09.539Z,14.80
2018-08-13T03:06:02.326Z,14.80
2018-08-13T03:07:02.255Z,14.72
2018-08-13T03:08:55.027Z,14.59
2018-08-13T03:09:54.956Z,14.63
2018-08-13T03:11:47.750Z,14.57
2018-08-13T03:12:47.676Z,14.59
2018-08-13T03:14:40.478Z,14.74
2018-08-13T03:15:40.379Z,14.59
2018-08-13T03:17:33.159Z,14.64
2018-08-13T03:18:33.084Z,14.57
2018-08-13T03:20:25.918Z,14.63
2018-08-13T03:21:25.795Z,14.52
2018-08-13T03:23:18.577Z,14.57
2018-08-13T03:24:18.513Z,14.53
2018-08-13T03:26:11.323Z,14.49
2018-08-13T03:27:11.228Z,14.49
2018-08-13T03:29:04.014Z,14.52
2018-08-13T03:30:03.949Z,14.52
2018-08-13T03:31:56.749Z,14.52
2018-08-13T03:32:56.654Z,14.54
2018-08-13T03:34:49.443Z,14.46
2018-08-13T03:35:49.364Z,14.52
2018-08-13T03:37:42.150Z,14.39
2018-08-13T03:38:42.094Z,14.42
2018-08-13T03:40:34.866Z,14.48
2018-08-13T03:41:34.786Z,14.35
2018-08-13T03:43:27.565Z,14.39
2018-08-13T03:44:27.501Z,14.48
2018-08-13T03:46:20.275Z,14.39
2018-08-13T03:47:20.193Z,14.45
2018-08-13T03:49:12.963Z,14.59
2018-08-13T03:50:12.974Z,14.52
2018-08-13T03:52:05.676Z,14.48
2018-08-13T03:53:05.600Z,14.53
2018-08-13T03:54:58.384Z,14.53
2018-08-13T03:55:58.311Z,14.48
2018-08-13T03:57:51.087Z,14.46
2018-08-13T03:58:51.020Z,14.54
2018-08-13T04:00:43.786Z,14.49
2018-08-13T04:01:43.726Z,14.45
2018-08-13T04:03:36.486Z,14.52
2018-08-13T04:04:36.422Z,14.52
2018-08-13T04:06:29.230Z,14.49
2018-08-13T04:07:29.137Z,14.44
2018-08-13T04:09:21.913Z,14.54
2018-08-13T04:10:21.855Z,14.53
2018-08-13T04:12:14.712Z,14.54
2018-08-13T04:13:14.585Z,14.61
2018-08-13T04:15:07.369Z,14.54
2018-08-13T04:16:07.296Z,14.59
2018-08-13T04:18:00.089Z,14.52
2018-08-13T04:19:00.045Z,14.53
2018-08-13T04:20:52.846Z,14.57
2018-08-13T04:21:52.740Z,14.60
2018-08-13T04:23:45.516Z,14.66
2018-08-13T04:24:45.457Z,14.66
2018-08-13T04:26:38.239Z,14.64
2018-08-13T04:27:38.175Z,14.69
2018-08-13T04:29:30.957Z,14.72
2018-08-13T04:30:30.887Z,14.72
2018-08-13T04:32:23.693Z,14.80
2018-08-13T04:33:23.604Z,14.69
2018-08-13T04:35:16.415Z,14.85
2018-08-13T04:36:16.312Z,14.79
2018-08-13T04:38:09.120Z,14.74
2018-08-13T04:39:09.058Z,14.78
2018-08-13T04:41:01.868Z,14.87
2018-08-13T04:42:01.776Z,14.82
2018-08-13T04:43:54.582Z,14.86
2018-08-13T04:44:54.500Z,14.86
2018-08-13T04:46:47.289Z,14.86
2018-08-13T04:47:47.233Z,15.01
2018-08-13T04:49:40.043Z,15.13
2018-08-13T04:50:39.946Z,15.04
2018-08-13T04:52:32.721Z,15.13
2018-08-13T04:53:32.646Z,15.20
2018-08-13T04:55:25.436Z,15.35
2018-08-13T04:56:25.367Z,15.35
2018-08-13T04:58:18.162Z,15.43
2018-08-13T04:59:18.086Z,15.49
2018-08-13T05:01:10.871Z,15.38
2018-08-13T05:02:10.795Z,15.64
2018-08-13T05:04:03.585Z,15.66
2018-08-13T05:05:03.531Z,15.80
2018-08-13T05:06:56.297Z,15.89
2018-08-13T05:07:56.225Z,15.81
2018-08-13T05:09:49.020Z,16.04
2018-08-13T05:10:48.952Z,16.07
2018-08-13T05:12:41.729Z,16.18
2018-08-13T05:13:41.652Z,16.14
2018-08-13T05:15:34.431Z,16.34
2018-08-13T05:16:34.362Z,16.47
2018-08-13T05:18:27.198Z,16.50
2018-08-13T05:19:27.104Z,16.60
2018-08-13T05:21:19.996Z,16.67
2018-08-13T05:22:19.804Z,16.78
2018-08-13T05:24:12.601Z,16.99
2018-08-13T05:25:12.529Z,17.10
2018-08-13T05:27:05.308Z,17.27
2018-08-13T05:28:05.219Z,17.43
2018-08-13T05:29:58.066Z,17.77
2018-08-13T05:30:57.998Z,17.91
2018-08-13T05:32:50.717Z,18.42
2018-08-13T05:33:50.642Z,18.65
2018-08-13T05:35:43.475Z,19.06
2018-08-13T05:36:43.410Z,19.30
2018-08-13T05:38:36.193Z,19.85
2018-08-13T05:39:36.108Z,19.90
2018-08-13T05:41:28.886Z,20.57
2018-08-13T05:42:28.808Z,21.09
2018-08-13T05:44:21.629Z,22.52
2018-08-13T05:45:21.558Z,22.94
2018-08-13T05:47:14.659Z,23.86
2018-08-13T05:48:14.423Z,24.39
2018-08-13T05:50:07.190Z,25.44
2018-08-13T05:51:07.106Z,26.08
2018-08-13T05:52:59.924Z,26.72
2018-08-13T05:53:59.821Z,26.76
2018-08-13T05:55:52.626Z,27.61
2018-08-13T05:56:52.544Z,27.90
2018-08-13T05:58:45.319Z,28.46
2018-08-13T05:59:45.278Z,28.45
2018-08-13T06:01:38.181Z,29.30
2018-08-13T06:02:38.106Z,29.66
2018-08-13T06:04:30.878Z,29.92
2018-08-13T06:05:30.813Z,29.88
2018-08-13T06:07:23.616Z,29.84
2018-08-13T06:08:23.534Z,29.89
2018-08-13T06:10:16.346Z,30.01
2018-08-13T06:11:16.339Z,30.13
2018-08-13T06:13:09.067Z,29.76
2018-08-13T06:14:08.993Z,29.21
2018-08-13T06:16:01.859Z,28.57
2018-08-13T06:17:01.796Z,28.73
2018-08-13T06:18:54.667Z,28.32
2018-08-13T06:19:54.593Z,28.62
2018-08-13T06:21:47.406Z,29.25
2018-08-13T06:22:47.338Z,29.64
2018-08-13T06:24:40.136Z,30.00
2018-08-13T06:25:40.086Z,30.00
2018-08-13T06:27:32.894Z,30.28
2018-08-13T06:28:32.823Z,30.72
2018-08-13T06:30:25.618Z,31.05
2018-08-13T06:31:25.556Z,31.56
2018-08-13T06:33:18.380Z,31.90
2018-08-13T06:34:18.324Z,31.99
2018-08-13T06:36:11.110Z,32.27
2018-08-13T06:37:11.071Z,32.46
2018-08-13T06:39:03.938Z,32.53
2018-08-13T06:40:03.862Z,32.66
2018-08-13T06:41:56.673Z,32.09
2018-08-13T06:42:56.610Z,32.14
2018-08-13T06:44:49.402Z,32.46
2018-08-13T06:45:49.347Z,32.31
2018-08-13T06:47:42.157Z,32.05
2018-08-13T06:48:42.093Z,32.02
2018-08-13T06:50:34.911Z,32.56
2018-08-13T06:51:34.840Z,32.81
2018-08-13T06:53:27.640Z,32.14
2018-08-13T06:54:27.574Z,31.87
2018-08-13T06:56:20.473Z,31.53
2018-08-13T06:57:20.361Z,31.46
2018-08-13T06:59:13.352Z,32.10
2018-08-13T07:00:13.268Z,32.54
2018-08-13T07:02:06.100Z,32.84
2018-08-13T07:03:06.025Z,32.99
2018-08-13T07:04:58.821Z,32.61
2018-08-13T07:05:58.808Z,31.71
2018-08-13T07:07:51.593Z,32.25
2018-08-13T07:08:51.530Z,32.54
2018-08-13T07:10:44.335Z,32.69
2018-08-13T07:11:44.286Z,32.69
2018-08-13T07:13:37.119Z,33.00
2018-08-13T07:14:37.055Z,33.37
2018-08-13T07:16:29.842Z,33.77
2018-08-13T07:17:29.797Z,33.74
2018-08-13T07:19:22.604Z,34.01
2018-08-13T07:20:22.535Z,34.27
2018-08-13T07:22:15.514Z,33.90
2018-08-13T07:23:15.403Z,34.28
2018-08-13T07:25:08.153Z,34.31
2018-08-13T07:26:08.101Z,34.46
2018-08-13T07:28:00.966Z,35.07
2018-08-13T07:29:00.876Z,35.05
2018-08-13T07:30:53.706Z,34.88
2018-08-13T07:31:53.661Z,34.31
2018-08-13T07:33:46.544Z,34.64
2018-08-13T07:34:46.410Z,34.53
2018-08-13T07:36:39.226Z,34.63
2018-08-13T07:37:39.186Z,34.94
2018-08-13T07:39:32.049Z,35.02
2018-08-13T07:40:31.935Z,35.34
2018-08-13T07:42:24.742Z,35.69
2018-08-13T07:43:24.676Z,35.61
2018-08-13T07:45:17.471Z,35.89
2018-08-13T07:46:17.427Z,35.49
2018-08-13T07:48:10.265Z,35.24
2018-08-13T07:49:10.207Z,35.36
2018-08-13T07:51:03.001Z,35.55
2018-08-13T07:52:02.958Z,35.54
2018-08-13T07:53:55.842Z,36.18
2018-08-13T07:54:55.722Z,36.41
2018-08-13T07:56:48.538Z,36.37
2018-08-13T07:57:48.492Z,36.55
2018-08-13T07:59:41.294Z,36.82
2018-08-13T08:00:41.233Z,36.75
2018-08-13T08:02:34.103Z,37.30
2018-08-13T08:03:34.041Z,37.40
2018-08-13T08:05:26.878Z,37.43
2018-08-13T08:06:26.818Z,37.28
2018-08-13T08:08:19.692Z,36.82
2018-08-13T08:09:19.752Z,36.79
2018-08-13T08:11:12.455Z,37.33
2018-08-13T08:12:12.397Z,37.65
2018-08-13T08:14:05.230Z,37.80
2018-08-13T08:15:05.167Z,37.97
2018-08-13T08:16:58.003Z,37.70
2018-08-13T08:17:57.933Z,37.42
2018-08-13T08:19:50.762Z,37.50
2018-08-13T08:20:50.708Z,37.28
2018-08-13T08:22:43.517Z,37.62
2018-08-13T08:23:43.447Z,37.73
2018-08-13T08:25:36.253Z,38.04
2018-08-13T08:26:36.192Z,38.09
2018-08-13T08:28:29.016Z,37.90
2018-08-13T08:29:29.026Z,37.84
2018-08-13T08:31:21.773Z,36.77
2018-08-13T08:32:21.723Z,36.40
2018-08-13T08:34:14.563Z,36.93
2018-08-13T08:35:14.502Z,37.27
2018-08-13T08:37:07.337Z,36.69
2018-08-13T08:38:07.259Z,37.09
2018-08-13T08:40:00.065Z,37.45
2018-08-13T08:41:00.094Z,37.49
2018-08-13T08:42:52.828Z,36.96
2018-08-13T08:43:52.763Z,36.71
2018-08-13T08:45:45.572Z,36.86
2018-08-13T08:46:45.525Z,37.01
2018-08-13T08:48:38.361Z,37.50
2018-08-13T08:49:38.298Z,37.30
2018-08-13T08:51:31.139Z,37.95
2018-08-13T08:52:31.099Z,37.77
2018-08-13T08:54:23.888Z,36.78
2018-08-13T08:55:23.846Z,36.48
2018-08-13T08:57:16.646Z,35.80
2018-08-13T08:58:16.594Z,35.47
2018-08-13T09:00:09.417Z,35.09
2018-08-13T09:01:09.356Z,35.05
2018-08-13T09:03:02.234Z,34.84
2018-08-13T09:04:02.122Z,34.94
2018-08-13T09:05:54.962Z,35.32
2018-08-13T09:06:54.877Z,35.66
2018-08-13T09:08:47.695Z,36.64
2018-08-13T09:09:47.667Z,37.02
2018-08-13T09:11:40.429Z,37.46
2018-08-13T09:12:40.384Z,37.66
2018-08-13T09:14:33.209Z,38.28
2018-08-13T09:15:33.139Z,38.36
2018-08-13T09:17:25.948Z,37.93
2018-08-13T09:18:25.880Z,37.63
2018-08-13T09:20:18.722Z,37.16
2018-08-13T09:21:18.628Z,37.24
2018-08-13T09:23:11.437Z,36.43
2018-08-13T09:24:11.376Z,36.59
2018-08-13T09:26:04.721Z,35.85
2018-08-13T09:27:04.670Z,35.85
2018-08-13T09:28:57.497Z,35.83
2018-08-13T09:29:57.483Z,36.18
2018-08-13T09:31:50.233Z,36.46
2018-08-13T09:32:50.192Z,36.91
2018-08-13T09:34:43.318Z,36.77
2018-08-13T09:35:43.247Z,36.35
2018-08-13T09:37:36.058Z,36.23
2018-08-13T09:38:36.004Z,36.62
2018-08-13T09:40:28.824Z,37.30
2018-08-13T09:41:28.776Z,37.43
2018-08-13T09:43:21.594Z,37.88
2018-08-13T09:44:21.526Z,37.95
2018-08-13T09:46:14.360Z,38.31
2018-08-13T09:47:14.273Z,38.04
2018-08-13T09:49:07.133Z,37.49
2018-08-13T09:50:07.115Z,37.34
2018-08-13T09:51:59.849Z,37.21
2018-08-13T09:52:59.796Z,37.15
2018-08-13T09:54:52.640Z,37.28
2018-08-13T09:55:52.572Z,37.02
2018-08-13T09:57:45.395Z,36.46
2018-08-13T09:58:45.347Z,36.64
2018-08-13T10:00:38.194Z,36.65
2018-08-13T10:01:38.107Z,36.60
2018-08-13T10:03:30.919Z,36.65
2018-08-13T10:04:30.892Z,35.68
2018-08-13T10:06:24.119Z,34.93
2018-08-13T10:07:23.683Z,34.61
2018-08-13T10:09:16.506Z,34.91
2018-08-13T10:10:16.419Z,35.22
2018-08-13T10:12:09.274Z,35.00
2018-08-13T10:13:09.206Z,35.22
2018-08-13T10:15:02.008Z,35.74
2018-08-13T10:16:01.942Z,35.83
2018-08-13T10:17:54.821Z,35.95
2018-08-13T10:18:54.719Z,36.00
2018-08-13T10:20:47.587Z,36.62
2018-08-13T10:21:47.495Z,36.79
2018-08-13T10:23:40.316Z,36.97
2018-08-13T10:24:40.241Z,36.89
2018-08-13T10:26:33.064Z,36.82
2018-08-13T10:27:32.993Z,36.86
2018-08-13T10:29:25.793Z,36.91
2018-08-13T10:30:25.733Z,37.08
2018-08-13T10:32:18.577Z,37.18
2018-08-13T10:33:18.515Z,37.16
2018-08-13T10:35:11.408Z,37.05
2018-08-13T10:36:11.302Z,37.04
2018-08-13T10:38:04.226Z,37.05
2018-08-13T10:39:04.160Z,36.99
2018-08-13T10:40:57.041Z,36.69
2018-08-13T10:41:56.998Z,36.38
2018-08-13T10:43:49.856Z,36.02
2018-08-13T10:44:49.820Z,35.56
2018-08-13T10:46:43.896Z,35.13
2018-08-13T10:47:43.636Z,34.83
2018-08-13T10:49:36.460Z,34.14
2018-08-13T10:50:36.480Z,34.14
2018-08-13T10:52:29.311Z,33.77
2018-08-13T10:53:29.254Z,34.05
2018-08-13T10:55:22.366Z,34.33
2018-08-13T10:56:22.291Z,34.61
2018-08-13T10:58:15.242Z,35.06
2018-08-13T10:59:15.205Z,35.07
2018-08-13T11:01:08.115Z,35.44
2018-08-13T11:02:07.979Z,35.46
2018-08-13T11:04:00.875Z,35.58
2018-08-13T11:05:00.902Z,35.50
2018-08-13T11:06:53.928Z,35.27
2018-08-13T11:07:53.811Z,34.93
2018-08-13T11:09:46.629Z,34.43
2018-08-13T11:10:46.565Z,34.56
2018-08-13T11:12:39.412Z,34.67
2018-08-13T11:13:39.328Z,34.98
2018-08-13T11:15:32.212Z,34.67
2018-08-13T11:16:32.136Z,34.78
2018-08-13T11:18:24.971Z,34.72
2018-08-13T11:19:24.908Z,34.83
2018-08-13T11:21:17.808Z,34.63
2018-08-13T11:22:17.767Z,34.65
2018-08-13T11:24:10.584Z,34.67
2018-08-13T11:25:10.569Z,34.76
2018-08-13T11:27:03.340Z,34.64
2018-08-13T11:28:03.274Z,34.58
2018-08-13T11:29:56.417Z,34.28
2018-08-13T11:30:56.206Z,34.18
2018-08-13T11:32:49.261Z,34.05
2018-08-13T11:33:49.175Z,34.06
2018-08-13T11:35:42.082Z,33.72
2018-08-13T11:36:42.019Z,33.60
2018-08-13T11:38:34.905Z,33.44
2018-08-13T11:39:34.843Z,33.40
2018-08-13T11:41:27.950Z,33.50
2018-08-13T11:42:27.624Z,33.50
2018-08-13T11:44:20.574Z,33.52
2018-08-13T11:45:20.451Z,33.50
2018-08-13T11:47:13.307Z,33.38
2018-08-13T11:48:13.235Z,33.44
2018-08-13T11:50:06.064Z,33.24
2018-08-13T11:51:06.055Z,33.22
2018-08-13T11:52:58.950Z,33.14
2018-08-13T11:53:58.906Z,32.85
2018-08-13T11:55:51.765Z,32.46
2018-08-13T11:56:51.692Z,32.21
2018-08-13T11:58:44.537Z,32.12
2018-08-13T11:59:44.508Z,32.13
2018-08-13T12:01:37.371Z,32.10
2018-08-13T12:02:37.257Z,31.99
2018-08-13T12:04:30.171Z,32.17
2018-08-13T12:05:30.100Z,32.17
2018-08-13T12:07:22.964Z,32.12
2018-08-13T12:08:22.926Z,32.09
2018-08-13T12:10:15.713Z,31.94
2018-08-13T12:11:15.698Z,31.94
2018-08-13T12:13:08.410Z,31.94
2018-08-13T12:14:08.466Z,31.94
2018-08-13T12:16:01.238Z,32.02
2018-08-13T12:17:01.081Z,32.02
2018-08-13T12:18:53.959Z,31.88
2018-08-13T12:19:53.924Z,31.79
2018-08-13T12:21:46.768Z,31.74
2018-08-13T12:22:46.719Z,31.72
2018-08-13T12:24:39.464Z,31.71
2018-08-13T12:25:39.367Z,31.69
2018-08-13T12:27:32.212Z,31.92
2018-08-13T12:28:32.121Z,31.91
2018-08-13T12:30:24.974Z,31.95
2018-08-13T12:31:24.923Z,32.07
2018-08-13T12:33:17.738Z,32.34
2018-08-13T12:34:17.671Z,32.46
2018-08-13T12:36:10.481Z,32.44
2018-08-13T12:37:10.433Z,32.49
2018-08-13T12:39:03.242Z,32.68
2018-08-13T12:40:03.161Z,32.84
2018-08-13T12:41:55.975Z,32.98
2018-08-13T12:42:55.911Z,33.14
2018-08-13T12:44:48.703Z,33.20
2018-08-13T12:45:48.650Z,33.38
2018-08-13T12:47:41.623Z,33.28
2018-08-13T12:48:41.420Z,33.29
2018-08-13T12:50:34.245Z,33.26
2018-08-13T12:51:34.185Z,33.29
2018-08-13T12:53:27.002Z,33.37
2018-08-13T12:54:26.938Z,33.40
2018-08-13T12:56:19.787Z,33.43
2018-08-13T12:57:19.761Z,33.24
2018-08-13T12:59:12.591Z,33.38
2018-08-13T13:00:12.582Z,33.50
2018-08-13T13:02:05.340Z,33.60
2018-08-13T13:03:05.280Z,33.62
2018-08-13T13:04:58.214Z,33.68
2018-08-13T13:05:58.175Z,33.62
2018-08-13T13:07:50.970Z,33.53
2018-08-13T13:08:50.912Z,33.47
2018-08-13T13:10:43.748Z,33.45
2018-08-13T13:11:43.627Z,33.38
2018-08-13T13:13:36.569Z,33.43
2018-08-13T13:14:36.455Z,33.31
2018-08-13T13:16:29.256Z,33.20
2018-08-13T13:17:29.150Z,33.28
2018-08-13T13:19:22.077Z,33.09
2018-08-13T13:20:21.976Z,33.03
2018-08-13T13:22:14.813Z,32.90
2018-08-13T13:23:14.739Z,33.00
2018-08-13T13:25:07.554Z,32.91
2018-08-13T13:26:07.497Z,33.03
2018-08-13T13:28:00.295Z,33.12
2018-08-13T13:29:00.235Z,33.05
2018-08-13T13:30:53.012Z,33.00
2018-08-13T13:31:52.957Z,32.91
2018-08-13T13:33:45.776Z,32.95
2018-08-13T13:34:45.849Z,32.83
2018-08-13T13:36:38.565Z,32.88
2018-08-13T13:37:38.514Z,32.83
2018-08-13T13:39:31.338Z,32.93
2018-08-13T13:40:31.330Z,32.93
2018-08-13T13:42:24.137Z,32.87
2018-08-13T13:43:24.324Z,32.83
2018-08-13T13:45:16.828Z,32.71
2018-08-13T13:46:16.823Z,32.66
2018-08-13T13:48:09.584Z,32.83
2018-08-13T13:49:09.503Z,32.87
2018-08-13T13:51:02.326Z,32.93
2018-08-13T13:52:02.322Z,32.83
2018-08-13T13:53:55.061Z,32.68
2018-08-13T13:54:55.000Z,32.58
2018-08-13T13:56:47.820Z,32.59
2018-08-13T13:57:47.753Z,32.43
2018-08-13T13:59:40.606Z,32.41
2018-08-13T14:00:40.502Z,32.29
2018-08-13T14:02:33.302Z,32.06
2018-08-13T14:03:33.223Z,31.92
2018-08-13T14:05:26.035Z,31.92
2018-08-13T14:06:26.038Z,31.91
2018-08-13T14:08:18.835Z,31.90
2018-08-13T14:09:18.769Z,31.91
2018-08-13T14:11:11.568Z,31.74
2018-08-13T14:12:11.502Z,31.67
2018-08-13T14:14:04.326Z,31.65
2018-08-13T14:15:04.254Z,31.53
2018-08-13T14:16:57.063Z,31.45
2018-08-13T14:17:56.997Z,31.47
2018-08-13T14:19:49.843Z,31.49
2018-08-13T14:20:49.717Z,31.32
2018-08-13T14:22:42.565Z,31.34
2018-08-13T14:23:42.499Z,31.32
2018-08-13T14:25:35.375Z,31.35
2018-08-13T14:26:35.316Z,31.34
2018-08-13T14:28:28.125Z,31.35
2018-08-13T14:29:28.046Z,31.38
2018-08-13T14:31:20.847Z,31.37
2018-08-13T14:32:20.783Z,31.38
2018-08-13T14:34:14.105Z,31.35
2018-08-13T14:35:13.988Z,31.32
2018-08-13T14:37:06.981Z,31.37
2018-08-13T14:38:06.901Z,31.34
2018-08-13T14:39:59.788Z,31.18
2018-08-13T14:40:59.635Z,31.01
2018-08-13T14:42:52.426Z,31.01
2018-08-13T14:43:52.350Z,30.91
2018-08-13T14:45:45.132Z,31.00
2018-08-13T14:46:45.081Z,31.00
2018-08-13T14:48:37.870Z,31.05
2018-08-13T14:49:37.797Z,31.04
2018-08-13T14:51:30.634Z,30.88
2018-08-13T14:52:30.549Z,30.86
2018-08-13T14:54:23.398Z,30.75
2018-08-13T14:55:23.330Z,30.81
2018-08-13T14:57:16.137Z,30.68
2018-08-13T14:58:16.223Z,30.57
2018-08-13T15:00:08.893Z,30.67
2018-08-13T15:01:08.829Z,30.64
2018-08-13T15:03:01.628Z,30.57
2018-08-13T15:04:01.569Z,30.60
2018-08-13T15:05:54.356Z,30.61
2018-08-13T15:06:54.345Z,30.48
2018-08-13T15:08:47.097Z,30.30
2018-08-13T15:09:47.026Z,30.26
2018-08-13T15:11:39.828Z,30.13
2018-08-13T15:12:39.757Z,30.19
2018-08-13T15:14:32.546Z,30.13
2018-08-13T15:15:32.480Z,30.11
2018-08-13T15:17:25.265Z,30.08
2018-08-13T15:18:25.211Z,30.19
2018-08-13T15:20:18.061Z,30.18
2018-08-13T15:21:17.988Z,30.07
2018-08-13T15:23:10.795Z,30.04
2018-08-13T15:24:10.728Z,30.06
2018-08-13T15:26:03.548Z,29.86
2018-08-13T15:27:03.555Z,29.97
2018-08-13T15:28:56.300Z,29.78
2018-08-13T15:29:56.298Z,29.76
2018-08-13T15:31:49.013Z,29.70
2018-08-13T15:32:48.980Z,29.62
2018-08-13T15:34:41.762Z,29.45
2018-08-13T15:35:41.764Z,29.32
2018-08-13T15:37:34.487Z,29.25
2018-08-13T15:38:34.428Z,29.15
2018-08-13T15:40:27.223Z,29.11
2018-08-13T15:41:27.153Z,29.05
2018-08-13T15:43:19.959Z,29.02
2018-08-13T15:44:19.899Z,28.97
2018-08-13T15:46:12.685Z,28.72
2018-08-13T15:47:12.630Z,28.65
2018-08-13T15:49:05.452Z,28.45
2018-08-13T15:50:05.371Z,28.28
2018-08-13T15:51:58.203Z,28.25
2018-08-13T15:52:58.102Z,28.18
2018-08-13T15:54:50.926Z,28.09
2018-08-13T15:55:50.835Z,28.01
2018-08-13T15:57:43.652Z,27.87
2018-08-13T15:58:43.590Z,27.72
2018-08-13T16:00:36.513Z,27.72
2018-08-13T16:01:36.456Z,27.74
2018-08-13T16:03:29.240Z,27.68
2018-08-13T16:04:29.172Z,27.71
2018-08-13T16:06:21.940Z,27.69
2018-08-13T16:07:21.880Z,27.63
2018-08-13T16:09:14.716Z,27.45
2018-08-13T16:10:14.647Z,27.23
2018-08-13T16:12:07.458Z,27.03
2018-08-13T16:13:07.410Z,26.78
2018-08-13T16:15:00.188Z,26.65
2018-08-13T16:16:00.129Z,26.61
2018-08-13T16:17:52.918Z,26.71
2018-08-13T16:18:52.866Z,26.72
2018-08-13T16:20:45.694Z,26.86
2018-08-13T16:21:45.597Z,26.75
2018-08-13T16:23:38.509Z,26.94
2018-08-13T16:24:38.364Z,26.88
2018-08-13T16:26:31.145Z,26.88
2018-08-13T16:27:31.075Z,26.81
2018-08-13T16:29:24.453Z,26.71
2018-08-13T16:30:23.808Z,26.78
2018-08-13T16:32:16.585Z,26.64
2018-08-13T16:33:16.525Z,26.53
2018-08-13T16:35:09.320Z,26.31
2018-08-13T16:36:09.253Z,26.31
2018-08-13T16:38:02.138Z,26.20
2018-08-13T16:39:02.099Z,26.12
2018-08-13T16:40:54.907Z,25.97
2018-08-13T16:41:54.824Z,25.93
2018-08-13T16:43:47.671Z,25.97
2018-08-13T16:44:47.586Z,25.91
2018-08-13T16:46:40.412Z,25.98
2018-08-13T16:47:40.357Z,25.97
2018-08-13T16:49:33.215Z,26.01
2018-08-13T16:53:18.267Z,26.17
2018-08-13T16:54:18.193Z,26.21
2018-08-13T16:56:11.060Z,26.28
2018-08-13T16:57:10.976Z,26.34
2018-08-13T16:59:03.727Z,26.28
2018-08-13T17:00:03.653Z,26.31
2018-08-13T17:01:56.490Z,26.31
2018-08-13T17:02:56.908Z,26.32
2018-08-13T17:04:49.280Z,26.32
2018-08-13T17:05:49.192Z,26.29
2018-08-13T17:07:42.167Z,26.32
2018-08-13T17:08:42.113Z,26.31
2018-08-13T17:10:34.904Z,26.31
2018-08-13T17:11:34.836Z,26.28
2018-08-13T17:13:27.677Z,26.27
2018-08-13T17:14:27.815Z,26.20
2018-08-13T17:16:20.412Z,26.13
2018-08-13T17:17:20.311Z,26.11
2018-08-13T17:19:13.225Z,26.04
2018-08-13T17:20:13.045Z,26.04
2018-08-13T17:22:06.092Z,26.00
2018-08-13T17:23:05.979Z,26.06
2018-08-13T17:24:58.848Z,26.19
2018-08-13T17:25:58.717Z,26.21
2018-08-13T17:27:51.555Z,26.20
2018-08-13T17:28:51.493Z,26.09
2018-08-13T17:30:44.319Z,26.11
2018-08-13T17:31:44.244Z,26.03
2018-08-13T17:33:37.046Z,26.01
2018-08-13T17:34:36.961Z,25.96
2018-08-13T17:36:29.812Z,25.96
2018-08-13T17:37:29.728Z,25.98
2018-08-13T17:39:22.540Z,25.90
2018-08-13T17:40:22.486Z,25.89
2018-08-13T17:42:15.274Z,25.82
2018-08-13T17:43:15.439Z,25.82
2018-08-13T17:45:08.026Z,25.60
2018-08-13T17:46:08.055Z,25.64
2018-08-13T17:48:00.826Z,25.49
2018-08-13T17:49:00.709Z,25.41
2018-08-13T17:50:53.570Z,25.44
2018-08-13T17:51:53.457Z,25.38
2018-08-13T17:53:46.283Z,25.38
2018-08-13T17:54:46.205Z,25.44
2018-08-13T17:56:39.145Z,25.35
2018-08-13T17:57:39.093Z,25.34
2018-08-13T17:59:32.369Z,25.41
2018-08-13T18:00:32.167Z,25.35
2018-08-13T18:02:25.616Z,25.39
2018-08-13T18:03:25.209Z,25.39
2018-08-13T18:05:18.578Z,25.41
2018-08-13T18:06:18.271Z,25.41
2018-08-13T18:08:11.181Z,25.39
2018-08-13T18:09:11.117Z,25.38
2018-08-13T18:11:03.865Z,25.41
2018-08-13T18:12:03.896Z,25.34
2018-08-13T18:13:56.653Z,25.36
2018-08-13T18:14:56.594Z,25.38
2018-08-13T18:16:49.363Z,25.38
2018-08-13T18:17:49.291Z,25.36
2018-08-13T18:19:42.139Z,25.41
2018-08-13T18:20:42.044Z,25.30
2018-08-13T18:22:34.862Z,25.31
2018-08-13T18:23:34.792Z,25.31
2018-08-13T18:25:27.589Z,25.26
2018-08-13T18:26:27.516Z,25.36
2018-08-13T18:28:20.330Z,25.36
2018-08-13T18:29:20.239Z,25.38
2018-08-13T18:31:13.055Z,25.42
2018-08-13T18:32:13.045Z,25.38
2018-08-13T18:34:05.768Z,25.34
2018-08-13T18:35:05.707Z,25.38